Time,TemperatureF,DewpointF,PressureIn,WindDirection,WindDirectionDegrees,WindSpeedMPH,WindSpeedGustMPH,Humidity,HourlyPrecipIn,Conditions,Clouds,dailyrainin,SoftwareType,DateUTC
2013-06-23 00:00:00,60.4,60.4,30.20,North,0,0.0,0.0,100,0.00,CLR,CLR,0.00,WeatherDisplay:10.37,2013-06-23 04:00:00,
2013-06-23 00:01:00,64.8,64.2,30.23,ENE,67,0.0,0.0,98,0.00,RA,,0.00,WeatherDisplay:10.37,2013-06-23 04:01:00,
2013-06-23 00:05:00,60.4,60.4,30.20,North,0,0.0,0.0,100,0.00,CLR,CLR,0.00,WeatherDisplay:10.37,2013-06-23 04:05:00,
2013-06-23 00:06:00,64.7,64.1,30.23,ENE,67,0.0,0.0,98,0.00,RA,,0.00,WeatherDisplay:10.37,2013-06-23 04:06:00,
2013-06-23 00:10:00,60.4,60.4,30.20,North,0,0.0,0.0,100,0.00,CLR,CLR,0.00,WeatherDisplay:10.37,2013-06-23 04:10:00,
2013-06-23 00:11:00,64.6,64.0,30.23,ENE,67,0.0,0.0,98,0.00,,,0.00,WeatherDisplay:10.37,2013-06-23 04:11:00,
2013-06-23 00:15:00,60.3,60.3,30.20,North,0,0.0,0.0,100,0.00,CLR,CLR,0.00,WeatherDisplay:10.37,2013-06-23 04:15:00,
2013-06-23 00:16:00,64.6,64.0,30.23,ENE,67,0.0,0.0,98,0.00,,,0.00,WeatherDisplay:10.37,2013-06-23 04:16:00,
2013-06-23 00:20:00,60.3,60.3,30.20,North,0,0.0,0.0,100,0.00,CLR,CLR,0.00,WeatherDisplay:10.37,2013-06-23 04:20:00,
2013-06-23 00:21:00,64.5,63.9,30.23,ENE,67,0.0,0.0,98,0.00,,,0.00,WeatherDisplay:10.37,2013-06-23 04:21:00,
2013-06-23 00:25:00,60.2,60.2,30.20,North,0,0.0,0.0,100,0.00,CLR,CLR,0.00,WeatherDisplay:10.37,2013-06-23 04:25:00,
2013-06-23 00:26:00,64.4,64.1,30.23,ENE,67,0.0,0.0,99,0.00,,,0.00,WeatherDisplay:10.37,2013-06-23 04:26:00,
2013-06-23 00:30:00,60.1,60.1,30.20,North,0,0.0,0.0,100,0.00,CLR,CLR,0.00,WeatherDisplay:10.37,2013-06-23 04:30:00,
2013-06-23 00:31:00,64.4,63.8,30.23,ENE,67,0.0,0.0,98,0.00,,,0.00,WeatherDisplay:10.37,2013-06-23 04:31:00,
2013-06-23 00:35:00,60.1,60.1,30.20,North,0,0.0,0.0,100,0.00,CLR,CLR,0.00,WeatherDisplay:10.37,2013-06-23 04:35:00,
2013-06-23 00:36:00,64.2,63.6,30.23,ENE,67,0.0,0.0,98,0.00,,,0.00,WeatherDisplay:10.37,2013-06-23 04:36:00,
2013-06-23 00:40:00,60.1,60.1,30.20,North,0,0.0,0.0,100,0.00,CLR,CLR,0.00,WeatherDisplay:10.37,2013-06-23 04:40:00,
2013-06-23 00:41:00,64.2,63.9,30.23,ENE,67,0.0,0.0,99,0.00,,,0.00,WeatherDisplay:10.37,2013-06-23 04:41:00,
2013-06-23 00:45:00,60.0,60.0,30.21,North,0,0.0,0.0,100,0.00,CLR,CLR,0.00,WeatherDisplay:10.37,2013-06-23 04:45:00,
2013-06-23 00:46:00,64.1,63.8,30.23,ENE,67,0.0,0.0,99,0.00,,,0.00,WeatherDisplay:10.37,2013-06-23 04:46:00,
2013-06-23 00:50:00,60.0,60.0,30.21,North,0,0.0,0.0,100,0.00,CLR,CLR,0.00,WeatherDisplay:10.37,2013-06-23 04:50:00,
2013-06-23 00:51:00,64.0,63.7,30.23,ENE,67,0.0,0.0,99,0.00,,,0.00,WeatherDisplay:10.37,2013-06-23 04:51:00,
2013-06-23 00:55:00,59.9,59.9,30.21,North,0,0.0,0.0,100,0.00,CLR,CLR,0.00,WeatherDisplay:10.37,2013-06-23 04:55:00,
2013-06-23 00:56:00,63.9,63.6,30.22,ENE,67,0.0,0.0,99,0.00,,,0.00,WeatherDisplay:10.37,2013-06-23 04:56:00,
2013-06-23 01:00:00,59.8,59.8,30.21,North,0,0.0,0.0,100,0.00,CLR,CLR,0.00,WeatherDisplay:10.37,2013-06-23 05:00:00,
2013-06-23 01:01:00,63.9,63.6,30.22,ENE,67,0.0,0.0,99,0.00,,,0.00,WeatherDisplay:10.37,2013-06-23 05:01:00,
2013-06-23 01:05:00,59.8,59.8,30.21,North,0,0.0,0.0,100,0.00,CLR,CLR,0.00,WeatherDisplay:10.37,2013-06-23 05:05:00,
2013-06-23 01:06:00,63.8,63.5,30.22,ENE,67,0.0,0.0,99,0.00,,,0.00,WeatherDisplay:10.37,2013-06-23 05:06:00,
2013-06-23 01:10:00,59.8,59.8,30.22,North,0,0.0,0.0,100,0.00,CLR,CLR,0.00,WeatherDisplay:10.37,2013-06-23 05:10:00,
2013-06-23 01:11:00,63.7,63.4,30.22,ENE,67,0.0,0.0,99,0.00,,,0.00,WeatherDisplay:10.37,2013-06-23 05:11:00,
2013-06-23 01:15:00,59.8,59.8,30.22,North,0,0.0,0.0,100,0.00,CLR,CLR,0.00,WeatherDisplay:10.37,2013-06-23 05:15:00,
2013-06-23 01:16:00,63.6,63.3,30.22,ENE,67,0.0,0.0,99,0.00,,,0.00,WeatherDisplay:10.37,2013-06-23 05:16:00,
2013-06-23 01:20:00,59.7,59.7,30.22,North,0,0.0,0.0,100,0.00,CLR,CLR,0.00,WeatherDisplay:10.37,2013-06-23 05:20:00,
2013-06-23 01:22:00,63.5,63.2,30.22,ENE,67,0.0,0.0,99,0.00,,,0.00,WeatherDisplay:10.37,2013-06-23 05:22:00,
2013-06-23 01:25:00,59.7,59.7,30.23,North,0,0.0,0.0,100,0.00,CLR,CLR,0.00,WeatherDisplay:10.37,2013-06-23 05:25:00,
2013-06-23 01:27:00,63.4,63.1,30.22,ENE,67,0.0,0.0,99,0.00,,,0.00,WeatherDisplay:10.37,2013-06-23 05:27:00,
2013-06-23 01:30:00,59.6,59.6,30.23,North,0,0.0,0.0,100,0.00,CLR,CLR,0.00,WeatherDisplay:10.37,2013-06-23 05:30:00,
2013-06-23 01:32:00,63.3,63.0,30.22,ENE,67,0.0,0.0,99,0.00,,,0.00,WeatherDisplay:10.37,2013-06-23 05:32:00,
2013-06-23 01:35:00,59.6,59.6,30.23,North,0,0.0,0.0,100,0.00,CLR,CLR,0.00,WeatherDisplay:10.37,2013-06-23 05:35:00,
2013-06-23 01:37:00,63.1,62.8,30.22,ENE,67,0.0,0.0,99,0.00,,,0.00,WeatherDisplay:10.37,2013-06-23 05:37:00,
2013-06-23 01:40:00,59.6,59.6,30.24,North,0,0.0,0.0,100,0.00,CLR,CLR,0.00,WeatherDisplay:10.37,2013-06-23 05:40:00,
2013-06-23 01:42:00,63.1,62.8,30.22,ENE,67,0.0,0.0,99,0.00,,,0.00,WeatherDisplay:10.37,2013-06-23 05:42:00,
2013-06-23 01:45:00,59.6,59.6,30.24,North,0,0.0,0.0,100,0.00,CLR,CLR,0.00,WeatherDisplay:10.37,2013-06-23 05:45:00,
2013-06-23 01:47:00,63.0,62.7,30.22,ENE,67,0.0,0.0,99,0.00,,,0.00,WeatherDisplay:10.37,2013-06-23 05:47:00,
2013-06-23 01:50:00,59.6,59.6,30.24,North,0,0.0,1.0,100,0.00,CLR,CLR,0.00,WeatherDisplay:10.37,2013-06-23 05:50:00,
2013-06-23 01:52:00,62.9,62.6,30.22,ENE,67,0.0,0.0,99,0.00,,,0.00,WeatherDisplay:10.37,2013-06-23 05:52:00,
2013-06-23 01:55:00,59.6,59.6,30.24,North,0,0.0,0.0,100,0.00,CLR,CLR,0.00,WeatherDisplay:10.37,2013-06-23 05:55:00,
2013-06-23 01:57:00,62.8,62.5,30.22,ENE,67,0.0,0.0,99,0.00,,,0.00,WeatherDisplay:10.37,2013-06-23 05:57:00,
2013-06-23 02:00:00,59.7,59.7,30.24,North,0,0.0,0.0,100,0.00,CLR,CLR,0.00,WeatherDisplay:10.37,2013-06-23 06:00:00,
2013-06-23 02:01:00,62.7,62.4,30.22,ENE,67,0.0,0.0,99,0.00,,,0.00,WeatherDisplay:10.37,2013-06-23 06:01:00,
2013-06-23 02:05:00,59.7,59.7,30.24,North,0,0.0,0.0,100,0.00,CLR,CLR,0.00,WeatherDisplay:10.37,2013-06-23 06:05:00,
2013-06-23 02:06:00,62.6,62.3,30.22,ENE,67,0.0,0.0,99,0.00,,,0.00,WeatherDisplay:10.37,2013-06-23 06:06:00,
2013-06-23 02:10:00,59.7,59.7,30.24,North,0,0.0,0.0,100,0.00,CLR,CLR,0.00,WeatherDisplay:10.37,2013-06-23 06:10:00,
2013-06-23 02:11:00,62.6,62.3,30.21,ENE,67,0.0,0.0,99,0.00,,,0.00,WeatherDisplay:10.37,2013-06-23 06:11:00,
2013-06-23 02:15:00,59.7,59.7,30.24,North,0,0.0,0.0,100,0.00,CLR,CLR,0.00,WeatherDisplay:10.37,2013-06-23 06:15:00,
2013-06-23 02:16:00,62.5,62.2,30.21,ENE,67,0.0,0.0,99,0.00,,,0.00,WeatherDisplay:10.37,2013-06-23 06:16:00,
2013-06-23 02:20:00,59.7,59.7,30.24,North,0,0.0,0.0,100,0.00,CLR,CLR,0.00,WeatherDisplay:10.37,2013-06-23 06:20:00,
2013-06-23 02:21:00,62.4,62.1,30.21,ENE,67,1.2,0.0,99,0.00,,,0.00,WeatherDisplay:10.37,2013-06-23 06:21:00,
2013-06-23 02:25:00,59.7,59.7,30.24,North,0,0.0,0.0,100,0.00,CLR,CLR,0.00,WeatherDisplay:10.37,2013-06-23 06:25:00,
2013-06-23 02:26:00,62.3,62.0,30.21,ENE,67,1.2,0.0,99,0.00,,,0.00,WeatherDisplay:10.37,2013-06-23 06:26:00,
2013-06-23 02:30:00,59.7,59.7,30.24,North,0,0.0,0.0,100,0.00,CLR,CLR,0.00,WeatherDisplay:10.37,2013-06-23 06:30:00,
2013-06-23 02:31:00,62.1,61.8,30.21,ENE,67,0.0,0.0,99,0.00,,,0.00,WeatherDisplay:10.37,2013-06-23 06:31:00,
2013-06-23 02:35:00,59.7,59.7,30.24,North,0,0.0,0.0,100,0.00,CLR,CLR,0.00,WeatherDisplay:10.37,2013-06-23 06:35:00,
2013-06-23 02:36:00,62.0,61.7,30.21,ENE,67,0.0,0.0,99,0.00,,,0.00,WeatherDisplay:10.37,2013-06-23 06:36:00,
2013-06-23 02:40:00,59.7,59.7,30.25,North,0,0.0,0.0,100,0.00,CLR,CLR,0.00,WeatherDisplay:10.37,2013-06-23 06:40:00,
2013-06-23 02:41:00,61.9,61.6,30.21,ENE,67,0.0,0.0,99,0.00,,,0.00,WeatherDisplay:10.37,2013-06-23 06:41:00,
2013-06-23 02:45:00,59.8,59.8,30.25,North,0,0.0,1.0,100,0.00,CLR,CLR,0.00,WeatherDisplay:10.37,2013-06-23 06:45:00,
2013-06-23 02:46:00,61.7,61.4,30.20,ENE,67,0.0,0.0,99,0.00,,,0.00,WeatherDisplay:10.37,2013-06-23 06:46:00,
2013-06-23 02:50:00,59.7,59.7,30.26,North,0,0.0,0.0,100,0.00,CLR,CLR,0.00,WeatherDisplay:10.37,2013-06-23 06:50:00,
2013-06-23 02:51:00,61.6,61.3,30.20,ENE,67,0.0,0.0,99,0.00,,,0.00,WeatherDisplay:10.37,2013-06-23 06:51:00,
2013-06-23 02:55:00,59.8,59.8,30.26,North,0,0.0,0.0,100,0.00,CLR,CLR,0.00,WeatherDisplay:10.37,2013-06-23 06:55:00,
2013-06-23 02:56:00,61.6,61.3,30.20,ENE,67,0.0,0.0,99,0.00,,,0.00,WeatherDisplay:10.37,2013-06-23 06:56:00,
2013-06-23 03:00:00,59.8,59.8,30.26,North,0,0.0,0.0,100,0.00,CLR,CLR,0.00,WeatherDisplay:10.37,2013-06-23 07:00:00,
2013-06-23 03:01:00,61.6,61.3,30.20,ENE,67,0.0,0.0,99,0.00,,,0.00,WeatherDisplay:10.37,2013-06-23 07:01:00,
2013-06-23 03:05:00,59.8,59.8,30.26,North,0,0.0,0.0,100,0.00,CLR,CLR,0.00,WeatherDisplay:10.37,2013-06-23 07:05:00,
2013-06-23 03:06:00,61.6,61.3,30.20,ENE,67,0.0,0.0,99,0.00,,,0.00,WeatherDisplay:10.37,2013-06-23 07:06:00,
2013-06-23 03:10:00,59.8,59.8,30.26,North,0,0.0,0.0,100,0.00,CLR,CLR,0.00,WeatherDisplay:10.37,2013-06-23 07:10:00,
2013-06-23 03:11:00,61.6,61.3,30.20,ENE,67,0.0,0.0,99,0.00,,,0.00,WeatherDisplay:10.37,2013-06-23 07:11:00,
2013-06-23 03:15:00,59.9,59.9,30.26,North,0,0.0,0.0,100,0.00,CLR,CLR,0.00,WeatherDisplay:10.37,2013-06-23 07:15:00,
2013-06-23 03:16:00,61.6,61.6,30.19,ENE,67,0.0,0.0,100,0.00,,,0.00,WeatherDisplay:10.37,2013-06-23 07:16:00,
2013-06-23 03:20:00,60.1,60.1,30.26,North,0,0.0,0.0,100,0.00,CLR,CLR,0.00,WeatherDisplay:10.37,2013-06-23 07:20:00,
2013-06-23 03:21:00,61.6,61.6,30.19,ENE,67,0.0,0.0,100,0.00,,,0.00,WeatherDisplay:10.37,2013-06-23 07:21:00,
2013-06-23 03:25:00,60.3,60.3,30.27,North,0,0.0,0.0,100,0.00,CLR,CLR,0.00,WeatherDisplay:10.37,2013-06-23 07:25:00,
2013-06-23 03:26:00,61.6,61.6,30.18,ENE,67,0.0,0.0,100,0.00,,,0.00,WeatherDisplay:10.37,2013-06-23 07:26:00,
2013-06-23 03:30:00,60.5,60.5,30.27,North,0,0.0,0.0,100,0.00,CLR,CLR,0.00,WeatherDisplay:10.37,2013-06-23 07:30:00,
2013-06-23 03:31:00,61.5,61.2,30.18,ENE,67,0.0,0.0,99,0.00,,,0.00,WeatherDisplay:10.37,2013-06-23 07:31:00,
2013-06-23 03:35:00,60.7,60.7,30.27,North,0,0.0,0.0,100,0.00,CLR,CLR,0.00,WeatherDisplay:10.37,2013-06-23 07:35:00,
2013-06-23 03:36:00,61.4,61.4,30.18,ENE,67,0.0,0.0,100,0.00,,,0.00,WeatherDisplay:10.37,2013-06-23 07:36:00,
2013-06-23 03:40:00,60.9,60.9,30.27,North,0,0.0,0.0,100,0.00,CLR,CLR,0.00,WeatherDisplay:10.37,2013-06-23 07:40:00,
2013-06-23 03:41:00,61.3,61.3,30.18,ENE,67,0.0,0.0,100,0.00,,,0.00,WeatherDisplay:10.37,2013-06-23 07:41:00,
2013-06-23 03:45:00,61.1,61.1,30.27,North,0,0.0,0.0,100,0.00,CLR,CLR,0.00,WeatherDisplay:10.37,2013-06-23 07:45:00,
2013-06-23 03:46:00,61.3,61.3,30.18,ENE,67,0.0,0.0,100,0.00,,,0.00,WeatherDisplay:10.37,2013-06-23 07:46:00,
2013-06-23 03:50:00,61.3,61.3,30.27,North,0,0.0,0.0,100,0.00,CLR,CLR,0.00,WeatherDisplay:10.37,2013-06-23 07:50:00,
2013-06-23 03:51:00,61.3,61.3,30.17,ENE,67,0.0,0.0,100,0.00,,,0.00,WeatherDisplay:10.37,2013-06-23 07:51:00,
2013-06-23 03:55:00,61.6,61.6,30.27,North,0,0.0,0.0,100,0.00,CLR,CLR,0.00,WeatherDisplay:10.37,2013-06-23 07:55:00,
2013-06-23 03:56:00,61.1,61.1,30.17,ENE,67,0.0,0.0,100,0.00,,,0.00,WeatherDisplay:10.37,2013-06-23 07:56:00,
2013-06-23 04:00:00,61.6,61.6,30.27,North,0,0.0,0.0,100,0.00,CLR,CLR,0.00,WeatherDisplay:10.37,2013-06-23 08:00:00,
2013-06-23 04:01:00,61.1,61.1,30.18,ENE,67,0.0,0.0,100,0.00,,,0.00,WeatherDisplay:10.37,2013-06-23 08:01:00,
2013-06-23 04:05:00,61.9,61.9,30.27,North,0,0.0,0.0,100,0.00,CLR,CLR,0.00,WeatherDisplay:10.37,2013-06-23 08:05:00,
2013-06-23 04:06:00,61.0,61.0,30.18,ENE,67,0.0,0.0,100,0.00,,,0.00,WeatherDisplay:10.37,2013-06-23 08:06:00,
2013-06-23 04:10:00,62.1,62.1,30.26,North,0,0.0,0.0,100,0.00,CLR,CLR,0.00,WeatherDisplay:10.37,2013-06-23 08:10:00,
2013-06-23 04:11:00,60.9,60.9,30.18,ENE,67,0.0,0.0,100,0.00,,,0.00,WeatherDisplay:10.37,2013-06-23 08:11:00,
2013-06-23 04:15:00,62.3,62.3,30.27,North,0,0.0,0.0,100,0.00,CLR,CLR,0.00,WeatherDisplay:10.37,2013-06-23 08:15:00,
2013-06-23 04:16:00,60.8,60.8,30.19,ENE,67,0.0,0.0,100,0.00,,,0.00,WeatherDisplay:10.37,2013-06-23 08:16:00,
2013-06-23 04:20:00,62.6,62.6,30.27,North,0,0.0,0.0,100,0.00,CLR,CLR,0.00,WeatherDisplay:10.37,2013-06-23 08:20:00,
2013-06-23 04:21:00,60.8,60.8,30.19,ENE,67,0.0,0.0,100,0.00,,,0.00,WeatherDisplay:10.37,2013-06-23 08:21:00,
2013-06-23 04:25:00,62.9,62.9,30.27,North,0,0.0,0.0,100,0.00,CLR,CLR,0.00,WeatherDisplay:10.37,2013-06-23 08:25:00,
2013-06-23 04:26:00,60.7,60.7,30.19,ENE,67,0.0,0.0,100,0.00,,,0.00,WeatherDisplay:10.37,2013-06-23 08:26:00,
2013-06-23 04:30:00,63.1,63.1,30.27,North,0,0.0,0.0,100,0.00,CLR,CLR,0.00,WeatherDisplay:10.37,2013-06-23 08:30:00,
2013-06-23 04:31:00,60.6,60.3,30.19,ENE,67,0.0,0.0,99,0.00,,,0.00,WeatherDisplay:10.37,2013-06-23 08:31:00,
2013-06-23 04:35:00,63.4,63.4,30.27,North,0,0.0,0.0,100,0.00,CLR,CLR,0.00,WeatherDisplay:10.37,2013-06-23 08:35:00,
2013-06-23 04:36:00,60.5,60.5,30.19,ENE,67,0.0,0.0,100,0.00,,,0.00,WeatherDisplay:10.37,2013-06-23 08:36:00,
2013-06-23 04:40:00,63.7,63.7,30.27,North,0,0.0,0.0,100,0.00,CLR,CLR,0.00,WeatherDisplay:10.37,2013-06-23 08:40:00,
2013-06-23 04:41:00,60.5,60.5,30.19,ENE,67,0.0,0.0,100,0.00,,,0.00,WeatherDisplay:10.37,2013-06-23 08:41:00,
2013-06-23 04:45:00,63.8,63.8,30.27,North,0,0.0,0.0,100,0.00,CLR,CLR,0.00,WeatherDisplay:10.37,2013-06-23 08:45:00,
2013-06-23 04:46:00,60.5,60.5,30.19,ENE,67,0.0,0.0,100,0.00,,,0.00,WeatherDisplay:10.37,2013-06-23 08:46:00,
2013-06-23 04:50:00,64.0,64.0,30.27,North,0,0.0,0.0,100,0.00,CLR,CLR,0.00,WeatherDisplay:10.37,2013-06-23 08:50:00,
2013-06-23 04:51:00,60.5,60.5,30.19,ENE,67,0.0,0.0,100,0.00,,,0.00,WeatherDisplay:10.37,2013-06-23 08:51:00,
2013-06-23 04:55:00,64.2,64.2,30.27,North,0,0.0,0.0,100,0.00,CLR,CLR,0.00,WeatherDisplay:10.37,2013-06-23 08:55:00,
2013-06-23 04:56:00,60.5,60.5,30.19,ENE,67,0.0,0.0,100,0.00,,,0.00,WeatherDisplay:10.37,2013-06-23 08:56:00,
2013-06-23 05:00:00,64.4,64.4,30.27,North,0,0.0,0.0,100,0.00,CLR,CLR,0.00,WeatherDisplay:10.37,2013-06-23 09:00:00,
2013-06-23 05:01:00,60.4,60.4,30.20,ENE,67,0.0,0.0,100,0.00,,,0.00,WeatherDisplay:10.37,2013-06-23 09:01:00,
2013-06-23 05:05:00,64.6,64.6,30.26,North,0,0.0,1.0,100,0.00,CLR,CLR,0.00,WeatherDisplay:10.37,2013-06-23 09:05:00,
2013-06-23 05:06:00,60.4,60.4,30.20,ENE,67,0.0,0.0,100,0.00,,,0.00,WeatherDisplay:10.37,2013-06-23 09:06:00,
2013-06-23 05:10:00,64.9,64.9,30.27,North,0,0.0,0.0,100,0.00,CLR,CLR,0.00,WeatherDisplay:10.37,2013-06-23 09:10:00,
2013-06-23 05:11:00,60.4,60.4,30.20,ENE,67,0.0,0.0,100,0.00,,,0.00,WeatherDisplay:10.37,2013-06-23 09:11:00,
2013-06-23 05:15:00,65.2,65.2,30.26,North,0,0.0,0.0,100,0.00,CLR,CLR,0.00,WeatherDisplay:10.37,2013-06-23 09:15:00,
2013-06-23 05:16:00,60.3,60.3,30.20,ENE,67,0.0,0.0,100,0.00,,,0.00,WeatherDisplay:10.37,2013-06-23 09:16:00,
2013-06-23 05:20:00,65.5,65.5,30.27,North,0,0.0,0.0,100,0.00,CLR,CLR,0.00,WeatherDisplay:10.37,2013-06-23 09:20:00,
2013-06-23 05:21:00,60.2,60.2,30.20,ENE,67,0.0,0.0,100,0.00,,,0.00,WeatherDisplay:10.37,2013-06-23 09:21:00,
2013-06-23 05:25:00,65.6,65.6,30.27,North,0,0.0,1.0,100,0.00,CLR,CLR,0.00,WeatherDisplay:10.37,2013-06-23 09:25:00,
2013-06-23 05:26:00,60.2,60.2,30.20,ENE,67,0.0,0.0,100,0.00,,,0.00,WeatherDisplay:10.37,2013-06-23 09:26:00,
2013-06-23 05:30:00,65.9,65.9,30.27,North,0,0.0,1.0,100,0.00,CLR,CLR,0.00,WeatherDisplay:10.37,2013-06-23 09:30:00,
2013-06-23 05:31:00,60.1,60.1,30.20,ENE,67,0.0,0.0,100,0.00,,,0.00,WeatherDisplay:10.37,2013-06-23 09:31:00,
2013-06-23 05:35:00,66.2,66.2,30.26,North,0,0.0,0.0,100,0.00,CLR,CLR,0.00,WeatherDisplay:10.37,2013-06-23 09:35:00,
2013-06-23 05:36:00,60.1,60.1,30.20,ENE,67,0.0,0.0,100,0.00,,,0.00,WeatherDisplay:10.37,2013-06-23 09:36:00,
2013-06-23 05:40:00,66.4,66.4,30.26,East,93,0.0,0.0,100,0.00,CLR,CLR,0.00,WeatherDisplay:10.37,2013-06-23 09:40:00,
2013-06-23 05:41:00,60.0,60.0,30.21,ENE,67,0.0,0.0,100,0.00,,,0.00,WeatherDisplay:10.37,2013-06-23 09:41:00,
2013-06-23 05:45:00,66.6,66.3,30.27,East,90,0.0,0.0,99,0.00,CLR,CLR,0.00,WeatherDisplay:10.37,2013-06-23 09:45:00,
2013-06-23 05:46:00,60.0,60.0,30.21,ENE,67,0.0,0.0,100,0.00,,,0.00,WeatherDisplay:10.37,2013-06-23 09:46:00,
2013-06-23 05:50:00,66.9,66.3,30.27,East,90,0.0,0.0,98,0.00,CLR,CLR,0.00,WeatherDisplay:10.37,2013-06-23 09:50:00,
2013-06-23 05:51:00,59.9,59.9,30.21,ENE,67,0.0,0.0,100,0.00,,,0.00,WeatherDisplay:10.37,2013-06-23 09:51:00,
2013-06-23 05:55:00,67.1,66.2,30.27,North,0,0.0,0.0,97,0.00,CLR,CLR,0.00,WeatherDisplay:10.37,2013-06-23 09:55:00,
2013-06-23 05:56:00,59.8,59.8,30.21,ENE,67,0.0,0.0,100,0.00,,,0.00,WeatherDisplay:10.37,2013-06-23 09:56:00,
2013-06-23 06:00:00,67.3,66.4,30.27,North,0,0.0,0.0,97,0.00,CLR,CLR,0.00,WeatherDisplay:10.37,2013-06-23 10:00:00,
2013-06-23 06:01:00,59.8,59.8,30.21,ENE,67,0.0,0.0,100,0.00,,,0.00,WeatherDisplay:10.37,2013-06-23 10:01:00,
2013-06-23 06:05:00,67.6,66.4,30.26,North,0,0.0,0.0,96,0.00,CLR,CLR,0.00,WeatherDisplay:10.37,2013-06-23 10:05:00,
2013-06-23 06:06:00,59.8,59.8,30.22,ENE,67,0.0,0.0,100,0.00,,,0.00,WeatherDisplay:10.37,2013-06-23 10:06:00,
2013-06-23 06:10:00,67.8,66.6,30.26,North,0,0.0,0.0,96,0.00,CLR,CLR,0.00,WeatherDisplay:10.37,2013-06-23 10:10:00,
2013-06-23 06:11:00,59.8,59.8,30.22,ENE,67,0.0,0.0,100,0.00,,,0.00,WeatherDisplay:10.37,2013-06-23 10:11:00,
2013-06-23 06:15:00,68.0,66.8,30.26,North,0,0.0,0.0,96,0.00,CLR,CLR,0.00,WeatherDisplay:10.37,2013-06-23 10:15:00,
2013-06-23 06:16:00,59.8,59.8,30.22,ENE,67,0.0,0.0,100,0.00,,,0.00,WeatherDisplay:10.37,2013-06-23 10:16:00,
2013-06-23 06:20:00,68.2,67.3,30.26,North,0,0.0,0.0,97,0.00,CLR,CLR,0.00,WeatherDisplay:10.37,2013-06-23 10:20:00,
2013-06-23 06:21:00,59.7,59.7,30.23,ENE,67,0.0,0.0,100,0.00,,,0.00,WeatherDisplay:10.37,2013-06-23 10:21:00,
2013-06-23 06:25:00,68.3,66.8,30.26,North,0,0.0,0.0,95,0.00,CLR,CLR,0.00,WeatherDisplay:10.37,2013-06-23 10:25:00,
2013-06-23 06:26:00,59.6,59.6,30.23,ENE,67,0.0,0.0,100,0.00,,,0.00,WeatherDisplay:10.37,2013-06-23 10:26:00,
2013-06-23 06:30:00,68.4,66.9,30.26,North,0,0.0,0.0,95,0.00,CLR,CLR,0.00,WeatherDisplay:10.37,2013-06-23 10:30:00,
2013-06-23 06:31:00,59.6,59.6,30.23,ENE,67,0.0,0.0,100,0.00,,,0.00,WeatherDisplay:10.37,2013-06-23 10:31:00,
2013-06-23 06:35:00,68.5,66.4,30.26,North,0,0.0,1.0,93,0.00,CLR,CLR,0.00,WeatherDisplay:10.37,2013-06-23 10:35:00,
2013-06-23 06:36:00,59.6,59.6,30.23,ENE,67,0.0,0.0,100,0.00,,,0.00,WeatherDisplay:10.37,2013-06-23 10:36:00,
2013-06-23 06:40:00,68.7,66.3,30.26,North,0,0.0,0.0,92,0.00,CLR,CLR,0.00,WeatherDisplay:10.37,2013-06-23 10:40:00,
2013-06-23 06:41:00,59.6,59.6,30.24,ENE,67,0.0,0.0,100,0.00,,,0.00,WeatherDisplay:10.37,2013-06-23 10:41:00,
2013-06-23 06:45:00,69.1,66.0,30.26,North,0,0.0,1.0,90,0.00,CLR,CLR,0.00,WeatherDisplay:10.37,2013-06-23 10:45:00,
2013-06-23 06:46:00,59.6,59.6,30.24,ENE,67,0.0,0.0,100,0.00,,,0.00,WeatherDisplay:10.37,2013-06-23 10:46:00,
2013-06-23 06:50:00,69.6,66.9,30.25,North,0,0.0,0.0,91,0.00,CLR,CLR,0.00,WeatherDisplay:10.37,2013-06-23 10:50:00,
2013-06-23 06:51:00,59.6,59.6,30.24,ENE,67,0.0,0.0,100,0.00,,,0.00,WeatherDisplay:10.37,2013-06-23 10:51:00,
2013-06-23 06:55:00,70.1,67.0,30.25,North,0,0.0,1.0,90,0.00,CLR,CLR,0.00,WeatherDisplay:10.37,2013-06-23 10:55:00,
2013-06-23 06:56:00,59.6,59.6,30.24,ENE,67,0.0,0.0,100,0.00,,,0.00,WeatherDisplay:10.37,2013-06-23 10:56:00,
2013-06-23 07:00:00,70.4,67.3,30.25,North,0,0.0,0.0,90,0.00,CLR,CLR,0.00,WeatherDisplay:10.37,2013-06-23 11:00:00,
2013-06-23 07:01:00,59.7,59.7,30.24,ENE,67,0.0,0.0,100,0.00,,,0.00,WeatherDisplay:10.37,2013-06-23 11:01:00,
2013-06-23 07:05:00,70.6,66.9,30.25,North,0,0.0,1.0,88,0.00,CLR,CLR,0.00,WeatherDisplay:10.37,2013-06-23 11:05:00,
2013-06-23 07:06:00,59.7,59.7,30.24,ENE,67,0.0,0.0,100,0.00,,,0.00,WeatherDisplay:10.37,2013-06-23 11:06:00,
2013-06-23 07:10:00,70.7,66.6,30.25,North,0,0.0,1.0,87,0.00,CLR,CLR,0.00,WeatherDisplay:10.37,2013-06-23 11:10:00,
2013-06-23 07:11:00,59.7,59.7,30.24,ENE,67,0.0,0.0,100,0.00,,,0.00,WeatherDisplay:10.37,2013-06-23 11:11:00,
2013-06-23 07:15:00,70.7,66.6,30.26,North,0,0.0,1.0,87,0.00,CLR,CLR,0.00,WeatherDisplay:10.37,2013-06-23 11:15:00,
2013-06-23 07:16:00,59.7,59.7,30.24,ENE,67,0.0,0.0,100,0.00,,,0.00,WeatherDisplay:10.37,2013-06-23 11:16:00,
2013-06-23 07:20:00,70.7,67.0,30.26,North,0,0.0,0.0,88,0.00,CLR,CLR,0.00,WeatherDisplay:10.37,2013-06-23 11:20:00,
2013-06-23 07:21:00,59.7,59.7,30.24,ENE,67,0.0,0.0,100,0.00,,,0.00,WeatherDisplay:10.37,2013-06-23 11:21:00,
2013-06-23 07:25:00,70.7,67.0,30.26,North,0,0.0,0.0,88,0.00,CLR,CLR,0.00,WeatherDisplay:10.37,2013-06-23 11:25:00,
2013-06-23 07:26:00,59.7,59.7,30.24,ENE,67,0.0,0.0,100,0.00,,,0.00,WeatherDisplay:10.37,2013-06-23 11:26:00,
2013-06-23 07:30:00,70.8,67.1,30.25,North,0,0.0,1.0,88,0.00,CLR,CLR,0.00,WeatherDisplay:10.37,2013-06-23 11:30:00,
2013-06-23 07:31:00,59.7,59.7,30.24,ENE,67,0.0,0.0,100,0.00,,,0.00,WeatherDisplay:10.37,2013-06-23 11:31:00,
2013-06-23 07:35:00,70.8,67.7,30.25,North,0,0.0,0.0,90,0.00,CLR,CLR,0.00,WeatherDisplay:10.37,2013-06-23 11:35:00,
2013-06-23 07:36:00,59.7,59.7,30.25,ENE,67,0.0,0.0,100,0.00,,,0.00,WeatherDisplay:10.37,2013-06-23 11:36:00,
2013-06-23 07:40:00,70.9,68.1,30.25,North,0,0.0,1.0,91,0.01,RA,RA,0.01,WeatherDisplay:10.37,2013-06-23 11:40:00,
2013-06-23 07:41:00,59.7,59.7,30.25,ENE,67,0.0,0.0,100,0.00,,,0.00,WeatherDisplay:10.37,2013-06-23 11:41:00,
2013-06-23 07:45:00,70.7,67.9,30.25,North,0,0.0,0.0,91,0.01,RA,RA,0.01,WeatherDisplay:10.37,2013-06-23 11:45:00,
2013-06-23 07:46:00,59.7,59.7,30.26,ENE,67,0.0,0.0,100,0.00,,,0.00,WeatherDisplay:10.37,2013-06-23 11:46:00,
2013-06-23 07:50:00,70.6,67.5,30.25,North,0,0.0,1.0,90,0.00,CLR,CLR,0.01,WeatherDisplay:10.37,2013-06-23 11:50:00,
2013-06-23 07:51:00,59.7,59.7,30.26,ENE,67,0.0,0.0,100,0.00,,,0.00,WeatherDisplay:10.37,2013-06-23 11:51:00,
2013-06-23 07:55:00,70.5,67.4,30.25,North,0,0.0,1.0,90,0.00,CLR,CLR,0.01,WeatherDisplay:10.37,2013-06-23 11:55:00,
2013-06-23 07:56:00,59.8,59.8,30.26,ENE,67,0.0,0.0,100,0.00,,,0.00,WeatherDisplay:10.37,2013-06-23 11:56:00,
2013-06-23 08:00:00,70.3,66.9,30.24,North,0,0.0,1.0,89,0.00,CLR,CLR,0.01,WeatherDisplay:10.37,2013-06-23 12:00:00,
2013-06-23 08:01:00,59.8,59.8,30.26,ENE,67,0.0,0.0,100,0.00,,,0.00,WeatherDisplay:10.37,2013-06-23 12:01:00,
2013-06-23 08:05:00,70.2,66.8,30.24,North,0,0.0,1.0,89,0.00,CLR,CLR,0.01,WeatherDisplay:10.37,2013-06-23 12:05:00,
2013-06-23 08:06:00,59.8,59.8,30.26,ENE,67,0.0,0.0,100,0.00,,,0.00,WeatherDisplay:10.37,2013-06-23 12:06:00,
2013-06-23 08:10:00,70.1,66.7,30.24,North,0,0.0,2.0,89,0.00,CLR,CLR,0.01,WeatherDisplay:10.37,2013-06-23 12:10:00,
2013-06-23 08:11:00,59.9,59.9,30.26,ENE,67,0.0,0.0,100,0.00,,,0.00,WeatherDisplay:10.37,2013-06-23 12:11:00,
2013-06-23 08:15:00,70.0,67.6,30.24,North,0,0.0,1.0,92,0.01,RA,RA,0.02,WeatherDisplay:10.37,2013-06-23 12:15:00,
2013-06-23 08:16:00,60.0,60.0,30.26,ENE,67,0.0,0.0,100,0.00,,,0.00,WeatherDisplay:10.37,2013-06-23 12:16:00,
2013-06-23 08:20:00,69.7,67.3,30.23,North,0,0.0,0.0,92,0.01,RA,RA,0.02,WeatherDisplay:10.37,2013-06-23 12:20:00,
2013-06-23 08:21:00,60.2,60.2,30.27,ENE,67,0.0,0.0,100,0.00,,,0.00,WeatherDisplay:10.37,2013-06-23 12:21:00,
2013-06-23 08:25:00,69.5,66.4,30.23,North,0,0.0,1.0,90,0.01,RA,RA,0.03,WeatherDisplay:10.37,2013-06-23 12:25:00,
2013-06-23 08:26:00,60.4,60.4,30.27,ENE,67,0.0,0.0,100,0.00,,,0.00,WeatherDisplay:10.37,2013-06-23 12:26:00,
2013-06-23 08:30:00,69.5,67.4,30.23,North,0,0.0,0.0,93,0.01,RA,RA,0.03,WeatherDisplay:10.37,2013-06-23 12:30:00,
2013-06-23 08:31:00,60.6,60.6,30.27,ENE,67,0.0,0.0,100,0.00,,,0.00,WeatherDisplay:10.37,2013-06-23 12:31:00,
2013-06-23 08:35:00,69.5,67.7,30.23,North,0,0.0,0.0,94,0.00,CLR,CLR,0.03,WeatherDisplay:10.37,2013-06-23 12:35:00,
2013-06-23 08:36:00,60.7,60.7,30.27,ENE,67,0.0,0.0,100,0.00,,,0.00,WeatherDisplay:10.37,2013-06-23 12:36:00,
2013-06-23 08:40:00,69.6,68.4,30.22,North,0,0.0,0.0,96,0.00,CLR,CLR,0.03,WeatherDisplay:10.37,2013-06-23 12:40:00,
2013-06-23 08:41:00,61.0,61.0,30.27,ENE,67,0.0,0.0,100,0.00,,,0.00,WeatherDisplay:10.37,2013-06-23 12:41:00,
2013-06-23 08:45:00,69.9,69.0,30.22,North,0,0.0,0.0,97,0.00,CLR,CLR,0.03,WeatherDisplay:10.37,2013-06-23 12:45:00,
2013-06-23 08:46:00,61.2,61.2,30.27,ENE,67,0.0,0.0,100,0.00,,,0.00,WeatherDisplay:10.37,2013-06-23 12:46:00,
2013-06-23 08:50:00,70.0,69.1,30.22,North,0,0.0,0.0,97,0.00,CLR,CLR,0.03,WeatherDisplay:10.37,2013-06-23 12:50:00,
2013-06-23 08:51:00,61.5,61.5,30.27,ENE,67,0.0,0.0,100,0.00,,,0.00,WeatherDisplay:10.37,2013-06-23 12:51:00,
2013-06-23 08:55:00,70.3,69.7,30.22,North,0,0.0,0.0,98,0.00,CLR,CLR,0.03,WeatherDisplay:10.37,2013-06-23 12:55:00,
2013-06-23 08:56:00,61.6,61.6,30.27,ENE,67,0.0,0.0,100,0.00,,,0.00,WeatherDisplay:10.37,2013-06-23 12:56:00,
2013-06-23 09:00:00,70.7,70.4,30.21,North,0,0.0,1.0,99,0.00,CLR,CLR,0.03,WeatherDisplay:10.37,2013-06-23 13:00:00,
2013-06-23 09:03:00,61.7,61.7,30.27,East,96,0.0,0.0,100,0.00,,,0.00,WeatherDisplay:10.37,2013-06-23 13:03:00,
2013-06-23 09:05:00,71.0,70.4,30.21,North,0,0.0,1.0,98,0.00,CLR,CLR,0.03,WeatherDisplay:10.37,2013-06-23 13:05:00,
2013-06-23 09:08:00,62.0,62.0,30.27,East,96,0.0,0.0,100,0.00,,,0.00,WeatherDisplay:10.37,2013-06-23 13:08:00,
2013-06-23 09:10:00,71.2,70.6,30.21,North,0,0.0,0.0,98,0.00,CLR,CLR,0.03,WeatherDisplay:10.37,2013-06-23 13:10:00,
2013-06-23 09:13:00,62.2,62.2,30.27,East,96,0.0,0.0,100,0.00,,,0.00,WeatherDisplay:10.37,2013-06-23 13:13:00,
2013-06-23 09:15:00,71.3,70.1,30.21,North,0,0.0,0.0,96,0.00,CLR,CLR,0.03,WeatherDisplay:10.37,2013-06-23 13:15:00,
2013-06-23 09:18:00,62.5,62.5,30.26,East,96,0.0,0.0,100,0.00,,,0.00,WeatherDisplay:10.37,2013-06-23 13:18:00,
2013-06-23 09:20:00,71.4,70.2,30.21,North,0,0.0,0.0,96,0.00,CLR,CLR,0.03,WeatherDisplay:10.37,2013-06-23 13:20:00,
2013-06-23 09:23:00,62.8,62.8,30.27,East,96,0.0,0.0,100,0.00,,,0.00,WeatherDisplay:10.37,2013-06-23 13:23:00,
2013-06-23 09:25:00,71.6,70.7,30.20,North,0,0.0,1.0,97,0.00,CLR,CLR,0.03,WeatherDisplay:10.37,2013-06-23 13:25:00,
2013-06-23 09:28:00,63.0,63.0,30.27,East,96,0.0,0.0,100,0.00,,,0.00,WeatherDisplay:10.37,2013-06-23 13:28:00,
2013-06-23 09:30:00,71.9,70.7,30.20,North,0,0.0,1.0,96,0.00,CLR,CLR,0.03,WeatherDisplay:10.37,2013-06-23 13:30:00,
2013-06-23 09:33:00,63.3,63.3,30.27,East,96,0.0,0.0,100,0.00,,,0.00,WeatherDisplay:10.37,2013-06-23 13:33:00,
2013-06-23 09:35:00,71.9,70.1,30.20,North,0,0.0,0.0,94,0.00,CLR,CLR,0.03,WeatherDisplay:10.37,2013-06-23 13:35:00,
2013-06-23 09:38:00,63.6,63.6,30.27,East,96,0.0,0.0,100,0.00,,,0.00,WeatherDisplay:10.37,2013-06-23 13:38:00,
2013-06-23 09:40:00,72.0,70.2,30.20,North,0,0.0,0.0,94,0.00,CLR,CLR,0.03,WeatherDisplay:10.37,2013-06-23 13:40:00,
2013-06-23 09:43:00,63.8,63.8,30.27,East,96,0.0,0.0,100,0.00,,,0.00,WeatherDisplay:10.37,2013-06-23 13:43:00,
2013-06-23 09:45:00,72.2,70.1,30.20,North,0,0.0,0.0,93,0.00,CLR,CLR,0.03,WeatherDisplay:10.37,2013-06-23 13:45:00,
2013-06-23 09:48:00,64.0,64.0,30.27,East,96,0.0,0.0,100,0.00,,,0.00,WeatherDisplay:10.37,2013-06-23 13:48:00,
2013-06-23 09:50:00,72.4,70.3,30.19,North,0,0.0,0.0,93,0.00,CLR,CLR,0.03,WeatherDisplay:10.37,2013-06-23 13:50:00,
2013-06-23 09:53:00,64.2,64.2,30.27,East,96,0.0,0.0,100,0.00,,,0.00,WeatherDisplay:10.37,2013-06-23 13:53:00,
2013-06-23 09:55:00,72.7,70.2,30.19,North,0,0.0,0.0,92,0.00,CLR,CLR,0.03,WeatherDisplay:10.37,2013-06-23 13:55:00,
2013-06-23 09:58:00,64.3,64.3,30.27,East,96,0.0,0.0,100,0.00,,,0.00,WeatherDisplay:10.37,2013-06-23 13:58:00,
2013-06-23 10:00:00,72.8,70.0,30.18,North,0,0.0,0.0,91,0.00,CLR,CLR,0.03,WeatherDisplay:10.37,2013-06-23 14:00:00,
2013-06-23 10:03:00,64.6,64.6,30.27,East,96,1.2,0.0,100,0.00,,,0.00,WeatherDisplay:10.37,2013-06-23 14:03:00,
2013-06-23 10:05:00,73.0,70.2,30.18,North,0,0.0,0.0,91,0.00,CLR,CLR,0.03,WeatherDisplay:10.37,2013-06-23 14:05:00,
2013-06-23 10:08:00,64.8,64.8,30.26,East,96,0.0,0.0,100,0.00,,,0.00,WeatherDisplay:10.37,2013-06-23 14:08:00,
2013-06-23 10:10:00,73.1,69.7,30.18,North,0,0.0,0.0,89,0.00,CLR,CLR,0.03,WeatherDisplay:10.37,2013-06-23 14:10:00,
2013-06-23 10:13:00,65.1,65.1,30.26,East,96,0.0,0.0,100,0.00,,,0.00,WeatherDisplay:10.37,2013-06-23 14:13:00,
2013-06-23 10:15:00,73.4,70.9,30.19,North,0,0.0,1.0,92,0.00,CLR,CLR,0.03,WeatherDisplay:10.37,2013-06-23 14:15:00,
2013-06-23 10:18:00,65.4,65.4,30.26,East,96,0.0,0.0,100,0.00,,,0.00,WeatherDisplay:10.37,2013-06-23 14:18:00,
2013-06-23 10:20:00,73.8,71.0,30.19,North,0,0.0,1.0,91,0.00,CLR,CLR,0.03,WeatherDisplay:10.37,2013-06-23 14:20:00,
2013-06-23 10:23:00,65.6,65.6,30.27,East,96,0.0,0.0,100,0.00,,,0.00,WeatherDisplay:10.37,2013-06-23 14:23:00,
2013-06-23 10:25:00,74.3,71.5,30.19,North,0,0.0,1.0,91,0.00,CLR,CLR,0.03,WeatherDisplay:10.37,2013-06-23 14:25:00,
2013-06-23 10:28:00,65.8,65.8,30.26,East,96,0.0,0.0,100,0.00,,,0.00,WeatherDisplay:10.37,2013-06-23 14:28:00,
2013-06-23 10:30:00,74.5,70.0,30.18,North,0,0.0,0.0,86,0.00,CLR,CLR,0.03,WeatherDisplay:10.37,2013-06-23 14:30:00,
2013-06-23 10:33:00,66.1,66.1,30.26,East,96,0.0,0.0,100,0.00,,,0.00,WeatherDisplay:10.37,2013-06-23 14:33:00,
2013-06-23 10:35:00,74.6,69.1,30.18,North,0,0.0,0.0,83,0.00,CLR,CLR,0.03,WeatherDisplay:10.37,2013-06-23 14:35:00,
2013-06-23 10:40:00,74.7,69.5,30.17,North,0,0.0,0.0,84,0.00,CLR,CLR,0.03,WeatherDisplay:10.37,2013-06-23 14:40:00,
2013-06-23 10:45:00,74.8,69.3,30.17,North,0,0.0,1.0,83,0.00,CLR,CLR,0.03,WeatherDisplay:10.37,2013-06-23 14:45:00,
2013-06-23 10:50:00,74.9,69.4,30.17,North,0,0.0,1.0,83,0.00,CLR,CLR,0.03,WeatherDisplay:10.37,2013-06-23 14:50:00,
2013-06-23 10:52:00,66.9,66.3,30.27,East,96,0.0,0.0,98,0.00,CLR,,0.00,WeatherDisplay:10.37,2013-06-23 14:52:00,
2013-06-23 10:55:00,74.9,68.3,30.18,North,0,0.0,0.0,80,0.00,CLR,CLR,0.03,WeatherDisplay:10.37,2013-06-23 14:55:00,
2013-06-23 10:57:00,67.1,66.2,30.27,East,96,0.0,0.0,97,0.00,,,0.00,WeatherDisplay:10.37,2013-06-23 14:57:00,
2013-06-23 11:02:00,67.4,66.5,30.27,East,96,0.0,0.0,97,0.00,,,0.00,WeatherDisplay:10.37,2013-06-23 15:02:00,
2013-06-23 11:07:00,67.6,66.4,30.26,East,96,0.0,0.0,96,0.00,,,0.00,WeatherDisplay:10.37,2013-06-23 15:07:00,
2013-06-23 11:12:00,67.8,66.6,30.26,East,96,0.0,0.0,96,0.00,,,0.00,WeatherDisplay:10.37,2013-06-23 15:12:00,
2013-06-23 11:17:00,68.0,66.8,30.26,East,96,0.0,0.0,96,0.00,,,0.00,WeatherDisplay:10.37,2013-06-23 15:17:00,
2013-06-23 11:22:00,68.2,67.3,30.26,East,96,0.0,0.0,97,0.00,,,0.00,WeatherDisplay:10.37,2013-06-23 15:22:00,
2013-06-23 11:27:00,68.3,66.5,30.27,East,96,0.0,0.0,94,0.00,CLR,,0.00,WeatherDisplay:10.37,2013-06-23 15:27:00,
2013-06-23 11:32:00,68.4,66.6,30.26,East,96,0.0,0.0,94,0.00,CLR,,0.00,WeatherDisplay:10.37,2013-06-23 15:32:00,
2013-06-23 11:37:00,68.5,66.7,30.26,East,96,0.0,0.0,94,0.00,CLR,,0.00,WeatherDisplay:10.37,2013-06-23 15:37:00,
2013-06-23 11:42:00,68.5,66.7,30.26,East,96,0.0,0.0,94,0.00,CLR,,0.00,WeatherDisplay:10.37,2013-06-23 15:42:00,
2013-06-23 11:47:00,68.5,66.7,30.26,East,96,0.0,0.0,94,0.00,CLR,,0.00,WeatherDisplay:10.37,2013-06-23 15:47:00,
2013-06-23 11:52:00,68.5,66.7,30.26,East,96,0.0,0.0,94,0.00,CLR,,0.00,WeatherDisplay:10.37,2013-06-23 15:52:00,
2013-06-23 11:57:00,68.5,66.7,30.26,East,96,0.0,0.0,94,0.00,CLR,,0.00,WeatherDisplay:10.37,2013-06-23 15:57:00,
2013-06-23 12:02:00,68.5,66.7,30.26,East,96,0.0,0.0,94,0.00,CLR,,0.00,WeatherDisplay:10.37,2013-06-23 16:02:00,
2013-06-23 12:07:00,68.5,66.7,30.26,East,96,0.0,0.0,94,0.00,CLR,,0.00,WeatherDisplay:10.37,2013-06-23 16:07:00,
2013-06-23 12:12:00,68.5,66.7,30.26,East,96,0.0,0.0,94,0.00,CLR,,0.00,WeatherDisplay:10.37,2013-06-23 16:12:00,
2013-06-23 12:17:00,68.5,66.7,30.26,East,96,0.0,0.0,94,0.00,CLR,,0.00,WeatherDisplay:10.37,2013-06-23 16:17:00,
2013-06-23 12:22:00,68.5,66.7,30.26,East,96,0.0,0.0,94,0.00,CLR,,0.00,WeatherDisplay:10.37,2013-06-23 16:22:00,
2013-06-23 12:27:00,68.5,66.7,30.26,East,96,0.0,0.0,94,0.00,CLR,,0.00,WeatherDisplay:10.37,2013-06-23 16:27:00,
2013-06-23 12:32:00,68.5,66.7,30.26,East,96,0.0,0.0,94,0.00,CLR,,0.00,WeatherDisplay:10.37,2013-06-23 16:32:00,
2013-06-23 12:37:00,68.5,66.7,30.26,East,96,0.0,0.0,94,0.00,CLR,,0.00,WeatherDisplay:10.37,2013-06-23 16:37:00,
2013-06-23 12:42:00,68.5,66.7,30.26,East,96,0.0,0.0,94,0.00,CLR,,0.00,WeatherDisplay:10.37,2013-06-23 16:42:00,
2013-06-23 12:47:00,68.5,66.7,30.26,East,96,0.0,0.0,94,0.00,CLR,,0.00,WeatherDisplay:10.37,2013-06-23 16:47:00,
2013-06-23 12:52:00,68.5,66.7,30.26,East,96,0.0,0.0,94,0.00,CLR,,0.00,WeatherDisplay:10.37,2013-06-23 16:52:00,
2013-06-23 12:57:00,68.5,66.7,30.26,East,96,0.0,0.0,94,0.00,CLR,,0.00,WeatherDisplay:10.37,2013-06-23 16:57:00,
2013-06-23 12:58:00,68.5,66.7,30.26,East,96,0.0,0.0,94,0.00,CLR,,0.00,WeatherDisplay:10.37,2013-06-23 16:58:00,
2013-06-23 13:03:00,68.5,66.7,30.26,East,96,0.0,0.0,94,0.00,CLR,,0.00,WeatherDisplay:10.37,2013-06-23 17:03:00,
2013-06-23 13:08:00,68.5,66.7,30.26,East,96,0.0,0.0,94,0.00,CLR,,0.00,WeatherDisplay:10.37,2013-06-23 17:08:00,
2013-06-23 13:13:00,68.5,66.7,30.26,East,96,0.0,0.0,94,0.00,CLR,,0.00,WeatherDisplay:10.37,2013-06-23 17:13:00,
2013-06-23 13:18:00,68.5,66.7,30.26,East,96,0.0,0.0,94,0.00,CLR,,0.00,WeatherDisplay:10.37,2013-06-23 17:18:00,
2013-06-23 13:23:00,68.5,66.7,30.26,East,96,0.0,0.0,94,0.00,CLR,,0.00,WeatherDisplay:10.37,2013-06-23 17:23:00,
2013-06-23 13:28:00,68.5,66.7,30.26,East,96,0.0,0.0,94,0.00,CLR,,0.00,WeatherDisplay:10.37,2013-06-23 17:28:00,
2013-06-23 13:33:00,68.5,66.7,30.26,East,96,0.0,0.0,94,0.00,CLR,,0.00,WeatherDisplay:10.37,2013-06-23 17:33:00,
2013-06-23 13:38:00,68.5,66.7,30.26,East,96,0.0,0.0,94,0.00,CLR,,0.00,WeatherDisplay:10.37,2013-06-23 17:38:00,
2013-06-23 13:43:00,68.5,66.7,30.26,East,96,0.0,0.0,94,0.00,CLR,,0.00,WeatherDisplay:10.37,2013-06-23 17:43:00,
2013-06-23 13:48:00,68.5,66.7,30.26,East,96,0.0,0.0,94,0.00,CLR,,0.00,WeatherDisplay:10.37,2013-06-23 17:48:00,
2013-06-23 13:53:00,68.5,66.7,30.26,East,96,0.0,0.0,94,0.00,CLR,,0.00,WeatherDisplay:10.37,2013-06-23 17:53:00,
2013-06-23 13:58:00,68.5,66.7,30.26,East,96,0.0,0.0,94,0.00,CLR,,0.00,WeatherDisplay:10.37,2013-06-23 17:58:00,
2013-06-23 14:03:00,68.5,66.7,30.26,East,96,0.0,0.0,94,0.00,CLR,,0.00,WeatherDisplay:10.37,2013-06-23 18:03:00,
2013-06-23 14:08:00,68.5,66.7,30.26,East,96,0.0,0.0,94,0.00,CLR,,0.00,WeatherDisplay:10.37,2013-06-23 18:08:00,
2013-06-23 14:13:00,68.5,66.7,30.26,East,96,0.0,0.0,94,0.00,CLR,,0.00,WeatherDisplay:10.37,2013-06-23 18:13:00,
2013-06-23 14:18:00,68.5,66.7,30.26,East,96,0.0,0.0,94,0.00,CLR,,0.00,WeatherDisplay:10.37,2013-06-23 18:18:00,
2013-06-23 14:23:00,68.5,66.7,30.26,East,96,0.0,0.0,94,0.00,CLR,,0.00,WeatherDisplay:10.37,2013-06-23 18:23:00,
2013-06-23 14:28:00,68.5,66.7,30.26,East,96,0.0,0.0,94,0.00,CLR,,0.00,WeatherDisplay:10.37,2013-06-23 18:28:00,
2013-06-23 14:33:00,68.5,66.7,30.26,East,96,0.0,0.0,94,0.00,CLR,,0.00,WeatherDisplay:10.37,2013-06-23 18:33:00,
2013-06-23 14:38:00,68.5,66.7,30.26,East,96,0.0,0.0,94,0.00,CLR,,0.00,WeatherDisplay:10.37,2013-06-23 18:38:00,
2013-06-23 14:43:00,68.5,66.7,30.26,East,96,0.0,0.0,94,0.00,CLR,,0.00,WeatherDisplay:10.37,2013-06-23 18:43:00,
2013-06-23 14:49:00,68.5,66.7,30.26,East,96,0.0,0.0,94,0.00,CLR,,0.00,WeatherDisplay:10.37,2013-06-23 18:49:00,
2013-06-23 14:54:00,68.5,66.7,30.26,East,96,0.0,0.0,94,0.00,CLR,,0.00,WeatherDisplay:10.37,2013-06-23 18:54:00,
2013-06-23 14:59:00,68.5,66.7,30.26,East,96,0.0,0.0,94,0.00,CLR,,0.00,WeatherDisplay:10.37,2013-06-23 18:59:00,
2013-06-23 15:04:00,68.5,66.7,30.26,East,96,0.0,0.0,94,0.00,CLR,,0.00,WeatherDisplay:10.37,2013-06-23 19:04:00,
2013-06-23 15:09:00,68.5,66.7,30.26,East,96,0.0,0.0,94,0.00,CLR,,0.00,WeatherDisplay:10.37,2013-06-23 19:09:00,
2013-06-23 15:14:00,68.5,66.7,30.26,East,96,0.0,0.0,94,0.00,CLR,,0.00,WeatherDisplay:10.37,2013-06-23 19:14:00,
2013-06-23 15:19:00,68.5,66.7,30.26,East,96,0.0,0.0,94,0.00,CLR,,0.00,WeatherDisplay:10.37,2013-06-23 19:19:00,
2013-06-23 15:24:00,68.5,66.7,30.26,East,96,0.0,0.0,94,0.00,CLR,,0.00,WeatherDisplay:10.37,2013-06-23 19:24:00,
2013-06-23 15:29:00,68.5,66.7,30.26,East,96,0.0,0.0,94,0.00,CLR,,0.00,WeatherDisplay:10.37,2013-06-23 19:29:00,
2013-06-23 15:34:00,68.5,66.7,30.26,East,96,0.0,0.0,94,0.00,CLR,,0.00,WeatherDisplay:10.37,2013-06-23 19:34:00,
2013-06-23 15:39:00,68.5,66.7,30.26,East,96,0.0,0.0,94,0.00,CLR,,0.00,WeatherDisplay:10.37,2013-06-23 19:39:00,
2013-06-23 15:44:00,68.5,66.7,30.26,East,96,0.0,0.0,94,0.00,CLR,,0.00,WeatherDisplay:10.37,2013-06-23 19:44:00,
2013-06-23 15:49:00,68.5,66.7,30.26,North,0,0.0,0.0,94,0.00,CLR,,0.00,WeatherDisplay:10.37,2013-06-23 19:49:00,
2013-06-23 16:02:00,74.9,68.7,30.18,ENE,65,0.0,0.0,81,0.00,CLR,,0.03,WeatherDisplay:10.37,2013-06-23 20:02:00,
2013-06-23 16:07:00,74.8,69.3,30.17,ENE,65,0.0,0.0,83,0.00,CLR,,0.03,WeatherDisplay:10.37,2013-06-23 20:07:00,
2013-06-23 16:12:00,74.8,70.0,30.18,ENE,65,0.0,0.0,85,0.00,CLR,,0.03,WeatherDisplay:10.37,2013-06-23 20:12:00,
2013-06-23 16:17:00,74.6,69.4,30.17,ENE,66,0.0,0.1,84,0.00,CLR,,0.03,WeatherDisplay:10.37,2013-06-23 20:17:00,
2013-06-23 16:22:00,74.5,69.0,30.18,ENE,64,3.5,0.0,83,0.00,CLR,,0.03,WeatherDisplay:10.37,2013-06-23 20:22:00,
2013-06-23 16:27:00,74.4,69.6,30.18,ENE,64,0.0,0.0,85,0.00,CLR,,0.03,WeatherDisplay:10.37,2013-06-23 20:27:00,
2013-06-23 16:32:00,74.3,69.5,30.18,ENE,64,0.0,0.0,85,0.00,CLR,,0.03,WeatherDisplay:10.37,2013-06-23 20:32:00,
2013-06-23 16:37:00,74.2,69.4,30.18,ENE,64,0.0,0.0,85,0.00,CLR,,0.03,WeatherDisplay:10.37,2013-06-23 20:37:00,
2013-06-23 16:42:00,74.1,69.6,30.18,ENE,64,0.0,0.0,86,0.00,CLR,,0.03,WeatherDisplay:10.37,2013-06-23 20:42:00,
2013-06-23 16:47:00,74.0,69.9,30.18,ENE,65,0.0,0.0,87,0.00,CLR,,0.03,WeatherDisplay:10.37,2013-06-23 20:47:00,
2013-06-23 16:52:00,73.9,70.8,30.18,ENE,65,0.0,0.0,90,0.01,RA,,0.04,WeatherDisplay:10.37,2013-06-23 20:52:00,
2013-06-23 16:57:00,73.8,71.0,30.18,ENE,65,1.2,0.0,91,0.01,RA,,0.04,WeatherDisplay:10.37,2013-06-23 20:57:00,
2013-06-23 17:02:00,73.6,70.8,30.18,NW,319,0.0,0.1,91,0.01,CLR,,0.04,WeatherDisplay:10.37,2013-06-23 21:02:00,
2013-06-23 17:07:00,73.2,70.7,30.18,NW,320,0.0,0.0,92,0.01,CLR,,0.04,WeatherDisplay:10.37,2013-06-23 21:07:00,
2013-06-23 17:12:00,72.9,70.1,30.18,NNW,336,0.0,0.0,91,0.01,CLR,,0.04,WeatherDisplay:10.37,2013-06-23 21:12:00,
2013-06-23 17:17:00,72.7,70.2,30.18,NNW,329,1.2,1.2,92,0.01,CLR,,0.04,WeatherDisplay:10.37,2013-06-23 21:17:00,
2013-06-23 17:22:00,72.3,69.8,30.18,NNW,329,1.2,0.0,92,0.01,CLR,,0.04,WeatherDisplay:10.37,2013-06-23 21:22:00,
2013-06-23 17:27:00,72.1,70.0,30.18,NNW,329,0.0,0.0,93,0.01,CLR,,0.04,WeatherDisplay:10.37,2013-06-23 21:27:00,
2013-06-23 17:32:00,72.0,69.5,30.18,NNW,329,0.0,0.0,92,0.01,CLR,,0.04,WeatherDisplay:10.37,2013-06-23 21:32:00,
2013-06-23 17:37:00,72.0,69.5,30.18,NNW,329,1.2,0.0,92,0.01,CLR,,0.04,WeatherDisplay:10.37,2013-06-23 21:37:00,
2013-06-23 17:42:00,72.0,69.5,30.18,NNW,329,0.0,0.0,92,0.01,CLR,,0.04,WeatherDisplay:10.37,2013-06-23 21:42:00,
2013-06-23 17:47:00,71.8,69.7,30.17,NNW,329,0.0,0.0,93,0.01,CLR,,0.04,WeatherDisplay:10.37,2013-06-23 21:47:00,
2013-06-23 17:52:00,71.6,69.2,30.18,NNW,329,0.0,0.0,92,0.00,CLR,,0.04,WeatherDisplay:10.37,2013-06-23 21:52:00,
2013-06-23 18:05:00,71.4,69.0,30.19,NNW,341,0.0,0.0,92,0.00,CLR,,0.04,WeatherDisplay:10.37,2013-06-23 22:05:00,
2013-06-23 18:24:00,71.1,69.9,30.19,South,187,3.5,0.0,96,0.24,RA,,0.29,WeatherDisplay:10.37,2013-06-23 22:24:00,
2013-06-23 18:29:00,70.6,69.7,30.18,SSE,148,1.2,1.2,97,0.33,RA,,0.37,WeatherDisplay:10.37,2013-06-23 22:29:00,
2013-06-23 18:34:00,70.5,69.6,30.17,SSE,149,0.0,0.0,97,0.35,RA,,0.39,WeatherDisplay:10.37,2013-06-23 22:34:00,
2013-06-23 18:39:00,70.2,69.3,30.18,SSE,149,0.0,0.0,97,0.35,RA,,0.39,WeatherDisplay:10.37,2013-06-23 22:39:00,
2013-06-23 18:44:00,70.1,69.2,30.18,SSE,149,0.0,0.0,97,0.35,CLR,,0.39,WeatherDisplay:10.37,2013-06-23 22:44:00,
2013-06-23 18:49:00,70.0,69.4,30.19,SSE,149,0.0,0.0,98,0.35,,,0.39,WeatherDisplay:10.37,2013-06-23 22:49:00,
2013-06-23 18:54:00,69.8,69.2,30.19,SSE,149,1.2,0.0,98,0.35,,,0.39,WeatherDisplay:10.37,2013-06-23 22:54:00,
2013-06-23 18:59:00,69.4,68.5,30.19,SSE,147,1.2,0.0,97,0.35,,,0.39,WeatherDisplay:10.37,2013-06-23 22:59:00,
2013-06-23 19:04:00,69.2,68.3,30.19,SSE,147,0.0,0.0,97,0.35,,,0.39,WeatherDisplay:10.37,2013-06-23 23:04:00,
2013-06-23 19:09:00,69.1,68.5,30.18,SSE,147,0.0,0.0,98,0.32,,,0.39,WeatherDisplay:10.37,2013-06-23 23:09:00,
2013-06-23 19:14:00,69.0,68.7,30.19,SSE,147,0.0,0.0,99,0.23,,,0.39,WeatherDisplay:10.37,2013-06-23 23:14:00,
2013-06-23 19:19:00,69.0,68.7,30.19,SSE,147,0.0,0.0,99,0.20,,,0.39,WeatherDisplay:10.37,2013-06-23 23:19:00,
2013-06-23 19:24:00,68.9,68.6,30.19,SSE,147,0.0,0.0,99,0.11,,,0.39,WeatherDisplay:10.37,2013-06-23 23:24:00,
2013-06-23 19:29:00,68.8,68.5,30.19,SSE,147,0.0,0.0,99,0.03,,,0.39,WeatherDisplay:10.37,2013-06-23 23:29:00,
2013-06-23 19:34:00,68.8,68.5,30.19,SSE,147,0.0,0.0,99,0.00,,,0.39,WeatherDisplay:10.37,2013-06-23 23:34:00,
2013-06-23 19:39:00,68.7,68.4,30.19,SSE,147,0.0,0.0,99,0.00,,,0.39,WeatherDisplay:10.37,2013-06-23 23:39:00,
2013-06-23 19:44:00,68.7,68.4,30.19,SSE,147,0.0,0.0,99,0.00,,,0.39,WeatherDisplay:10.37,2013-06-23 23:44:00,
2013-06-23 19:49:00,68.6,68.3,30.19,ESE,121,0.0,0.0,99,0.00,,,0.39,WeatherDisplay:10.37,2013-06-23 23:49:00,
2013-06-23 19:55:00,68.6,68.3,30.19,ESE,121,0.0,0.0,99,0.00,,,0.39,WeatherDisplay:10.37,2013-06-23 23:55:00,
2013-06-23 20:00:00,68.5,68.2,30.19,ESE,121,0.0,0.0,99,0.00,,,0.39,WeatherDisplay:10.37,2013-06-24 00:00:00,
2013-06-23 20:05:00,68.5,68.5,30.19,ESE,121,0.0,0.0,100,0.00,,,0.39,WeatherDisplay:10.37,2013-06-24 00:05:00,
2013-06-23 20:10:00,68.5,68.5,30.19,ESE,121,0.0,0.0,100,0.01,RA,,0.40,WeatherDisplay:10.37,2013-06-24 00:10:00,
2013-06-23 20:15:00,68.5,68.5,30.20,ESE,121,0.0,0.0,100,0.01,RA,,0.40,WeatherDisplay:10.37,2013-06-24 00:15:00,
2013-06-23 20:20:00,68.5,68.5,30.19,ESE,121,0.0,0.0,100,0.01,,,0.40,WeatherDisplay:10.37,2013-06-24 00:20:00,
2013-06-23 20:25:00,68.5,68.5,30.19,ESE,121,0.0,0.0,100,0.01,CLR,,0.40,WeatherDisplay:10.37,2013-06-24 00:25:00,
2013-06-23 20:30:00,68.5,68.5,30.20,ESE,121,0.0,0.0,100,0.02,RA,,0.41,WeatherDisplay:10.37,2013-06-24 00:30:00,
2013-06-23 20:35:00,68.4,68.4,30.20,ESE,121,0.0,0.0,100,0.02,RA,,0.41,WeatherDisplay:10.37,2013-06-24 00:35:00,
2013-06-23 20:40:00,68.3,68.0,30.20,ESE,121,0.0,0.0,99,0.02,CLR,,0.41,WeatherDisplay:10.37,2013-06-24 00:40:00,
2013-06-23 20:45:00,68.2,67.9,30.20,ESE,121,0.0,0.0,99,0.02,,,0.41,WeatherDisplay:10.37,2013-06-24 00:45:00,
2013-06-23 20:50:00,68.1,68.1,30.19,ESE,121,0.0,0.0,100,0.02,,,0.41,WeatherDisplay:10.37,2013-06-24 00:50:00,
2013-06-23 20:55:00,67.9,67.9,30.19,ESE,121,0.0,0.0,100,0.02,,,0.41,WeatherDisplay:10.37,2013-06-24 00:55:00,
2013-06-23 21:00:00,67.9,67.9,30.20,ESE,121,0.0,0.0,100,0.02,,,0.41,WeatherDisplay:10.37,2013-06-24 01:00:00,
2013-06-23 21:05:00,67.8,67.8,30.20,ESE,121,0.0,0.0,100,0.02,,,0.41,WeatherDisplay:10.37,2013-06-24 01:05:00,
2013-06-23 21:10:00,67.7,67.7,30.19,ESE,121,0.0,0.0,100,0.01,,,0.41,WeatherDisplay:10.37,2013-06-24 01:10:00,
2013-06-23 21:15:00,67.7,67.7,30.19,ESE,121,0.0,0.0,100,0.01,,,0.41,WeatherDisplay:10.37,2013-06-24 01:15:00,
2013-06-23 21:20:00,67.7,67.7,30.20,ESE,121,0.0,0.0,100,0.01,,,0.41,WeatherDisplay:10.37,2013-06-24 01:20:00,
2013-06-23 21:25:00,67.6,67.6,30.20,ESE,121,0.0,0.0,100,0.01,,,0.41,WeatherDisplay:10.37,2013-06-24 01:25:00,
2013-06-23 21:30:00,67.6,67.6,30.19,ESE,121,0.0,0.0,100,0.00,,,0.41,WeatherDisplay:10.37,2013-06-24 01:30:00,
2013-06-23 21:35:00,67.5,67.5,30.20,ESE,121,0.0,0.0,100,0.00,,,0.41,WeatherDisplay:10.37,2013-06-24 01:35:00,
2013-06-23 21:40:00,67.5,67.5,30.20,ESE,121,0.0,0.0,100,0.00,,,0.41,WeatherDisplay:10.37,2013-06-24 01:40:00,
2013-06-23 21:45:00,67.5,67.5,30.20,ESE,121,0.0,0.0,100,0.00,,,0.41,WeatherDisplay:10.37,2013-06-24 01:45:00,
2013-06-23 21:50:00,67.5,67.5,30.21,ESE,121,0.0,0.0,100,0.00,,,0.41,WeatherDisplay:10.37,2013-06-24 01:50:00,
2013-06-23 21:55:00,67.5,67.5,30.21,ESE,121,0.0,0.0,100,0.00,,,0.41,WeatherDisplay:10.37,2013-06-24 01:55:00,
2013-06-23 22:00:00,67.5,67.5,30.21,ESE,121,0.0,0.0,100,0.00,,,0.41,WeatherDisplay:10.37,2013-06-24 02:00:00,
2013-06-23 22:05:00,67.5,67.5,30.21,ESE,121,0.0,0.0,100,0.00,,,0.41,WeatherDisplay:10.37,2013-06-24 02:05:00,
2013-06-23 22:10:00,67.5,67.5,30.22,ESE,121,0.0,0.0,100,0.00,,,0.41,WeatherDisplay:10.37,2013-06-24 02:10:00,
2013-06-23 22:15:00,67.5,67.5,30.22,ESE,121,0.0,0.0,100,0.00,,,0.41,WeatherDisplay:10.37,2013-06-24 02:15:00,
2013-06-23 22:20:00,67.5,67.5,30.22,ESE,121,0.0,0.0,100,0.00,,,0.41,WeatherDisplay:10.37,2013-06-24 02:20:00,
2013-06-23 22:25:00,67.5,67.5,30.22,ESE,121,0.0,0.0,100,0.00,,,0.41,WeatherDisplay:10.37,2013-06-24 02:25:00,
2013-06-23 22:30:00,67.5,67.5,30.23,ESE,121,0.0,0.0,100,0.00,,,0.41,WeatherDisplay:10.37,2013-06-24 02:30:00,
2013-06-23 22:35:00,67.5,67.5,30.23,ESE,121,0.0,0.0,100,0.00,,,0.41,WeatherDisplay:10.37,2013-06-24 02:35:00,
2013-06-23 22:40:00,67.4,67.4,30.23,ESE,121,0.0,0.0,100,0.00,,,0.41,WeatherDisplay:10.37,2013-06-24 02:40:00,
2013-06-23 22:45:00,67.5,67.5,30.24,ESE,121,0.0,0.0,100,0.00,,,0.41,WeatherDisplay:10.37,2013-06-24 02:45:00,
2013-06-23 22:50:00,67.5,67.5,30.24,ESE,121,0.0,0.0,100,0.00,,,0.41,WeatherDisplay:10.37,2013-06-24 02:50:00,
2013-06-23 22:55:00,67.4,67.4,30.24,ESE,121,0.0,0.0,100,0.00,,,0.41,WeatherDisplay:10.37,2013-06-24 02:55:00,
2013-06-23 23:00:00,67.4,67.4,30.24,ESE,121,0.0,0.0,100,0.00,,,0.41,WeatherDisplay:10.37,2013-06-24 03:00:00,
2013-06-23 23:05:00,67.3,67.3,30.24,ESE,121,0.0,0.0,100,0.00,,,0.41,WeatherDisplay:10.37,2013-06-24 03:05:00,
2013-06-23 23:10:00,67.3,67.3,30.24,ESE,121,0.0,0.0,100,0.00,,,0.41,WeatherDisplay:10.37,2013-06-24 03:10:00,
2013-06-23 23:15:00,67.2,67.2,30.24,ESE,121,0.0,0.0,100,0.00,,,0.41,WeatherDisplay:10.37,2013-06-24 03:15:00,
2013-06-23 23:20:00,67.2,67.2,30.24,ESE,121,0.0,0.0,100,0.00,,,0.41,WeatherDisplay:10.37,2013-06-24 03:20:00,
2013-06-23 23:25:00,67.2,67.2,30.24,ESE,121,0.0,0.0,100,0.00,,,0.41,WeatherDisplay:10.37,2013-06-24 03:25:00,
2013-06-23 23:30:00,67.1,67.1,30.24,ESE,121,0.0,0.0,100,0.00,,,0.41,WeatherDisplay:10.37,2013-06-24 03:30:00,
2013-06-23 23:35:00,67.2,67.2,30.24,ESE,121,0.0,0.0,100,0.00,,,0.41,WeatherDisplay:10.37,2013-06-24 03:35:00,
2013-06-23 23:40:00,67.2,67.2,30.24,ESE,121,0.0,0.0,100,0.00,,,0.41,WeatherDisplay:10.37,2013-06-24 03:40:00,
2013-06-23 23:45:00,67.2,67.2,30.24,ESE,121,0.0,0.0,100,0.00,,,0.41,WeatherDisplay:10.37,2013-06-24 03:45:00,
2013-06-23 23:50:00,67.2,67.2,30.24,ESE,121,0.0,0.0,100,0.00,,,0.41,WeatherDisplay:10.37,2013-06-24 03:50:00,
2013-06-23 23:55:00,67.2,67.2,30.25,ESE,121,0.0,0.0,100,0.00,,,0.41,WeatherDisplay:10.37,2013-06-24 03:55:00,